sensor_id;sensor_type;location;lat;lon;timestamp;temperature;humidity
16477;DHT22;8349;50.928;6.376;2023-02-28T00:00:00;-0.10;99.90
16477;DHT22;8349;50.928;6.376;2023-02-28T00:02:35;-0.10;99.90
16477;DHT22;8349;50.928;6.376;2023-02-28T00:05:02;0.00;99.90
16477;DHT22;8349;50.928;6.376;2023-02-28T00:07:29;-0.10;99.90
16477;DHT22;8349;50.928;6.376;2023-02-28T00:09:56;-0.10;99.90
16477;DHT22;8349;50.928;6.376;2023-02-28T00:12:23;-0.10;99.90
16477;DHT22;8349;50.928;6.376;2023-02-28T00:14:50;-0.10;99.90
16477;DHT22;8349;50.928;6.376;2023-02-28T00:17:18;0.00;99.90
16477;DHT22;8349;50.928;6.376;2023-02-28T00:19:46;-0.10;99.90
16477;DHT22;8349;50.928;6.376;2023-02-28T00:22:13;-0.10;99.90
16477;DHT22;8349;50.928;6.376;2023-02-28T00:24:40;-0.10;99.90
16477;DHT22;8349;50.928;6.376;2023-02-28T00:27:07;-0.10;99.90
16477;DHT22;8349;50.928;6.376;2023-02-28T00:29:34;-0.10;99.90
16477;DHT22;8349;50.928;6.376;2023-02-28T00:32:01;-0.10;99.90
16477;DHT22;8349;50.928;6.376;2023-02-28T00:34:29;-0.10;99.90
16477;DHT22;8349;50.928;6.376;2023-02-28T00:36:56;-0.20;99.90
16477;DHT22;8349;50.928;6.376;2023-02-28T00:39:23;-0.20;99.90
16477;DHT22;8349;50.928;6.376;2023-02-28T00:41:49;-0.20;99.90
16477;DHT22;8349;50.928;6.376;2023-02-28T00:44:16;-0.30;99.90
16477;DHT22;8349;50.928;6.376;2023-02-28T00:46:43;-0.30;99.90
16477;DHT22;8349;50.928;6.376;2023-02-28T00:49:10;-0.20;99.90
16477;DHT22;8349;50.928;6.376;2023-02-28T00:51:38;-0.20;99.90
16477;DHT22;8349;50.928;6.376;2023-02-28T00:54:05;-0.20;99.90
16477;DHT22;8349;50.928;6.376;2023-02-28T00:56:32;-0.30;99.90
16477;DHT22;8349;50.928;6.376;2023-02-28T00:58:58;-0.20;99.90
16477;DHT22;8349;50.928;6.376;2023-02-28T01:01:25;-0.20;99.90
16477;DHT22;8349;50.928;6.376;2023-02-28T01:03:52;-0.20;99.90
16477;DHT22;8349;50.928;6.376;2023-02-28T01:06:19;-0.20;99.90
16477;DHT22;8349;50.928;6.376;2023-02-28T01:08:48;-0.10;99.90
16477;DHT22;8349;50.928;6.376;2023-02-28T01:11:15;-0.20;99.90
16477;DHT22;8349;50.928;6.376;2023-02-28T01:13:43;-0.30;99.90
16477;DHT22;8349;50.928;6.376;2023-02-28T01:16:11;-0.40;99.90
16477;DHT22;8349;50.928;6.376;2023-02-28T01:18:38;-0.40;99.90
16477;DHT22;8349;50.928;6.376;2023-02-28T01:21:07;-0.40;99.90
16477;DHT22;8349;50.928;6.376;2023-02-28T01:23:34;-0.40;99.90
16477;DHT22;8349;50.928;6.376;2023-02-28T01:26:06;-0.40;99.90
16477;DHT22;8349;50.928;6.376;2023-02-28T01:28:33;-0.40;99.90
16477;DHT22;8349;50.928;6.376;2023-02-28T01:31:00;-0.40;99.90
16477;DHT22;8349;50.928;6.376;2023-02-28T01:33:27;-0.40;99.90
16477;DHT22;8349;50.928;6.376;2023-02-28T01:35:57;-0.50;99.90
16477;DHT22;8349;50.928;6.376;2023-02-28T01:38:24;-0.40;99.90
16477;DHT22;8349;50.928;6.376;2023-02-28T01:40:53;-0.40;99.90
16477;DHT22;8349;50.928;6.376;2023-02-28T01:43:23;-0.40;99.90
16477;DHT22;8349;50.928;6.376;2023-02-28T01:45:50;-0.50;99.90
16477;DHT22;8349;50.928;6.376;2023-02-28T01:48:17;-0.50;99.90
16477;DHT22;8349;50.928;6.376;2023-02-28T01:50:45;-0.50;99.90
16477;DHT22;8349;50.928;6.376;2023-02-28T01:53:13;-0.40;99.90
16477;DHT22;8349;50.928;6.376;2023-02-28T01:55:40;-0.50;99.90
16477;DHT22;8349;50.928;6.376;2023-02-28T01:58:09;-0.50;99.90
16477;DHT22;8349;50.928;6.376;2023-02-28T02:00:37;-0.60;99.90
16477;DHT22;8349;50.928;6.376;2023-02-28T02:03:07;-0.60;99.90
16477;DHT22;8349;50.928;6.376;2023-02-28T02:05:35;-0.60;99.90
16477;DHT22;8349;50.928;6.376;2023-02-28T02:08:03;-0.60;99.90
16477;DHT22;8349;50.928;6.376;2023-02-28T02:10:32;-0.60;99.90
16477;DHT22;8349;50.928;6.376;2023-02-28T02:15:49;-0.60;99.90
16477;DHT22;8349;50.928;6.376;2023-02-28T02:18:19;-0.70;99.90
16477;DHT22;8349;50.928;6.376;2023-02-28T02:29:20;-0.90;99.90
16477;DHT22;8349;50.928;6.376;2023-02-28T02:31:56;-0.90;99.90
16477;DHT22;8349;50.928;6.376;2023-02-28T02:37:20;-1.00;99.90
16477;DHT22;8349;50.928;6.376;2023-02-28T02:39:56;-0.90;99.90
16477;DHT22;8349;50.928;6.376;2023-02-28T02:42:28;-0.90;99.90
16477;DHT22;8349;50.928;6.376;2023-02-28T02:44:57;-0.90;99.90
16477;DHT22;8349;50.928;6.376;2023-02-28T02:47:26;-0.90;99.90
16477;DHT22;8349;50.928;6.376;2023-02-28T02:49:54;-0.90;99.90
16477;DHT22;8349;50.928;6.376;2023-02-28T02:52:25;-0.90;99.90
16477;DHT22;8349;50.928;6.376;2023-02-28T02:54:55;-0.90;99.90
16477;DHT22;8349;50.928;6.376;2023-02-28T02:57:24;-0.90;99.90
16477;DHT22;8349;50.928;6.376;2023-02-28T02:59:51;-0.90;99.90
16477;DHT22;8349;50.928;6.376;2023-02-28T03:02:20;-0.80;99.90
16477;DHT22;8349;50.928;6.376;2023-02-28T03:04:48;-0.80;99.90
16477;DHT22;8349;50.928;6.376;2023-02-28T03:07:17;-0.70;99.90
16477;DHT22;8349;50.928;6.376;2023-02-28T03:09:50;-0.70;99.90
16477;DHT22;8349;50.928;6.376;2023-02-28T03:12:17;-0.60;99.90
16477;DHT22;8349;50.928;6.376;2023-02-28T03:14:50;-0.50;99.90
16477;DHT22;8349;50.928;6.376;2023-02-28T03:17:30;-0.60;99.90
16477;DHT22;8349;50.928;6.376;2023-02-28T03:20:04;-0.60;99.90
16477;DHT22;8349;50.928;6.376;2023-02-28T03:22:40;-0.60;99.90
16477;DHT22;8349;50.928;6.376;2023-02-28T03:25:18;-0.50;99.90
16477;DHT22;8349;50.928;6.376;2023-02-28T03:27:49;-0.50;99.90
16477;DHT22;8349;50.928;6.376;2023-02-28T03:30:22;-0.60;99.90
16477;DHT22;8349;50.928;6.376;2023-02-28T03:32:51;-0.70;99.90
16477;DHT22;8349;50.928;6.376;2023-02-28T03:35:20;-0.70;99.90
16477;DHT22;8349;50.928;6.376;2023-02-28T03:37:49;-0.70;99.90
16477;DHT22;8349;50.928;6.376;2023-02-28T03:40:19;-0.70;99.90
16477;DHT22;8349;50.928;6.376;2023-02-28T03:42:47;-0.60;99.90
16477;DHT22;8349;50.928;6.376;2023-02-28T03:45:17;-0.70;99.90
16477;DHT22;8349;50.928;6.376;2023-02-28T03:47:45;-0.70;99.90
16477;DHT22;8349;50.928;6.376;2023-02-28T03:50:14;-0.80;99.90
16477;DHT22;8349;50.928;6.376;2023-02-28T03:52:44;-1.00;99.90
16477;DHT22;8349;50.928;6.376;2023-02-28T03:55:13;-1.10;99.90
16477;DHT22;8349;50.928;6.376;2023-02-28T03:57:43;-1.20;99.90
16477;DHT22;8349;50.928;6.376;2023-02-28T04:00:15;-1.20;99.90
16477;DHT22;8349;50.928;6.376;2023-02-28T04:02:45;-1.30;99.90
16477;DHT22;8349;50.928;6.376;2023-02-28T04:05:17;-1.40;99.90
16477;DHT22;8349;50.928;6.376;2023-02-28T04:07:44;-1.40;99.90
16477;DHT22;8349;50.928;6.376;2023-02-28T04:10:11;-1.40;99.90
16477;DHT22;8349;50.928;6.376;2023-02-28T04:12:39;-1.40;99.90
16477;DHT22;8349;50.928;6.376;2023-02-28T04:15:08;-1.40;99.90
16477;DHT22;8349;50.928;6.376;2023-02-28T04:17:35;-1.40;99.90
16477;DHT22;8349;50.928;6.376;2023-02-28T04:20:02;-1.40;99.90
16477;DHT22;8349;50.928;6.376;2023-02-28T04:22:35;-1.30;99.90
16477;DHT22;8349;50.928;6.376;2023-02-28T04:25:02;-1.30;99.90
16477;DHT22;8349;50.928;6.376;2023-02-28T04:27:29;-1.40;99.90
16477;DHT22;8349;50.928;6.376;2023-02-28T04:29:55;-1.40;99.90
16477;DHT22;8349;50.928;6.376;2023-02-28T04:32:24;-1.50;99.90
16477;DHT22;8349;50.928;6.376;2023-02-28T04:34:50;-1.50;99.90
16477;DHT22;8349;50.928;6.376;2023-02-28T04:37:17;-1.60;99.90
16477;DHT22;8349;50.928;6.376;2023-02-28T04:39:44;-1.70;99.90
16477;DHT22;8349;50.928;6.376;2023-02-28T04:42:11;-1.80;99.90
16477;DHT22;8349;50.928;6.376;2023-02-28T04:44:38;-1.80;99.90
16477;DHT22;8349;50.928;6.376;2023-02-28T04:47:05;-1.80;99.90
16477;DHT22;8349;50.928;6.376;2023-02-28T04:49:33;-1.90;99.90
16477;DHT22;8349;50.928;6.376;2023-02-28T04:52:00;-1.90;99.90
16477;DHT22;8349;50.928;6.376;2023-02-28T04:54:27;-1.90;99.90
16477;DHT22;8349;50.928;6.376;2023-02-28T04:56:54;-1.80;99.90
16477;DHT22;8349;50.928;6.376;2023-02-28T04:59:21;-1.80;99.90
16477;DHT22;8349;50.928;6.376;2023-02-28T05:01:49;-1.80;99.90
16477;DHT22;8349;50.928;6.376;2023-02-28T05:04:16;-1.80;99.90
16477;DHT22;8349;50.928;6.376;2023-02-28T05:06:45;-1.80;99.90
16477;DHT22;8349;50.928;6.376;2023-02-28T05:09:11;-1.70;99.90
16477;DHT22;8349;50.928;6.376;2023-02-28T05:11:39;-1.80;99.90
16477;DHT22;8349;50.928;6.376;2023-02-28T05:14:06;-1.80;99.90
16477;DHT22;8349;50.928;6.376;2023-02-28T05:16:33;-1.70;99.90
16477;DHT22;8349;50.928;6.376;2023-02-28T05:19:00;-1.70;99.90
16477;DHT22;8349;50.928;6.376;2023-02-28T05:21:28;-1.70;99.90
16477;DHT22;8349;50.928;6.376;2023-02-28T05:23:59;-1.80;99.90
16477;DHT22;8349;50.928;6.376;2023-02-28T05:26:26;-1.80;99.90
16477;DHT22;8349;50.928;6.376;2023-02-28T05:28:53;-1.90;99.90
16477;DHT22;8349;50.928;6.376;2023-02-28T05:31:20;-1.90;99.90
16477;DHT22;8349;50.928;6.376;2023-02-28T05:33:47;-1.90;99.90
16477;DHT22;8349;50.928;6.376;2023-02-28T05:36:14;-1.90;99.90
16477;DHT22;8349;50.928;6.376;2023-02-28T05:38:41;-2.00;99.90
16477;DHT22;8349;50.928;6.376;2023-02-28T05:41:09;-2.00;99.90
16477;DHT22;8349;50.928;6.376;2023-02-28T05:43:37;-2.10;99.90
16477;DHT22;8349;50.928;6.376;2023-02-28T05:46:04;-2.10;99.90
16477;DHT22;8349;50.928;6.376;2023-02-28T05:48:31;-2.10;99.90
16477;DHT22;8349;50.928;6.376;2023-02-28T05:50:58;-2.10;99.90
16477;DHT22;8349;50.928;6.376;2023-02-28T05:53:24;-2.10;99.90
16477;DHT22;8349;50.928;6.376;2023-02-28T05:55:51;-2.20;99.90
16477;DHT22;8349;50.928;6.376;2023-02-28T05:58:19;-2.20;99.90
16477;DHT22;8349;50.928;6.376;2023-02-28T06:00:46;-2.30;99.90
16477;DHT22;8349;50.928;6.376;2023-02-28T06:03:13;-2.20;99.90
16477;DHT22;8349;50.928;6.376;2023-02-28T06:05:40;-2.20;99.90
16477;DHT22;8349;50.928;6.376;2023-02-28T06:08:07;-2.30;99.90
16477;DHT22;8349;50.928;6.376;2023-02-28T06:10:34;-2.20;99.90
16477;DHT22;8349;50.928;6.376;2023-02-28T06:13:01;-2.20;99.90
16477;DHT22;8349;50.928;6.376;2023-02-28T06:15:30;-2.10;99.90
16477;DHT22;8349;50.928;6.376;2023-02-28T06:17:57;-2.10;99.90
16477;DHT22;8349;50.928;6.376;2023-02-28T06:20:24;-2.20;99.90
16477;DHT22;8349;50.928;6.376;2023-02-28T06:22:51;-2.10;99.90
16477;DHT22;8349;50.928;6.376;2023-02-28T06:25:19;-2.20;99.90
16477;DHT22;8349;50.928;6.376;2023-02-28T06:27:46;-2.10;99.90
16477;DHT22;8349;50.928;6.376;2023-02-28T06:30:13;-2.10;99.90
16477;DHT22;8349;50.928;6.376;2023-02-28T06:32:42;-2.10;99.90
16477;DHT22;8349;50.928;6.376;2023-02-28T06:35:08;-2.10;99.90
16477;DHT22;8349;50.928;6.376;2023-02-28T06:37:35;-2.10;99.90
16477;DHT22;8349;50.928;6.376;2023-02-28T06:40:02;-2.10;99.90
16477;DHT22;8349;50.928;6.376;2023-02-28T06:42:32;-2.00;99.90
16477;DHT22;8349;50.928;6.376;2023-02-28T06:44:58;-2.00;99.90
16477;DHT22;8349;50.928;6.376;2023-02-28T06:47:25;-2.00;99.90
16477;DHT22;8349;50.928;6.376;2023-02-28T06:49:53;-2.00;99.90
16477;DHT22;8349;50.928;6.376;2023-02-28T06:52:20;-1.90;99.90
16477;DHT22;8349;50.928;6.376;2023-02-28T06:54:47;-1.90;99.90
16477;DHT22;8349;50.928;6.376;2023-02-28T06:57:25;-1.80;99.90
16477;DHT22;8349;50.928;6.376;2023-02-28T06:59:52;-1.80;99.90
16477;DHT22;8349;50.928;6.376;2023-02-28T07:02:18;-1.80;99.90
16477;DHT22;8349;50.928;6.376;2023-02-28T07:04:45;-1.70;99.90
16477;DHT22;8349;50.928;6.376;2023-02-28T07:07:13;-1.70;99.90
16477;DHT22;8349;50.928;6.376;2023-02-28T07:09:40;-1.60;99.90
16477;DHT22;8349;50.928;6.376;2023-02-28T07:12:07;-1.50;99.90
16477;DHT22;8349;50.928;6.376;2023-02-28T07:14:34;-1.40;99.90
16477;DHT22;8349;50.928;6.376;2023-02-28T07:17:02;-1.40;99.90
16477;DHT22;8349;50.928;6.376;2023-02-28T07:19:29;-1.30;99.90
16477;DHT22;8349;50.928;6.376;2023-02-28T07:21:56;-1.20;99.90
16477;DHT22;8349;50.928;6.376;2023-02-28T07:24:24;-1.20;99.90
16477;DHT22;8349;50.928;6.376;2023-02-28T07:26:53;-1.10;99.90
16477;DHT22;8349;50.928;6.376;2023-02-28T07:29:20;-1.10;99.90
16477;DHT22;8349;50.928;6.376;2023-02-28T07:31:47;-1.10;99.90
16477;DHT22;8349;50.928;6.376;2023-02-28T07:34:15;-1.00;99.90
16477;DHT22;8349;50.928;6.376;2023-02-28T07:36:42;-1.00;99.90
16477;DHT22;8349;50.928;6.376;2023-02-28T07:39:09;-0.90;99.90
16477;DHT22;8349;50.928;6.376;2023-02-28T07:41:37;-0.80;99.90
16477;DHT22;8349;50.928;6.376;2023-02-28T07:44:08;-0.80;99.90
16477;DHT22;8349;50.928;6.376;2023-02-28T07:46:35;-0.70;99.90
16477;DHT22;8349;50.928;6.376;2023-02-28T07:49:02;-0.70;99.90
16477;DHT22;8349;50.928;6.376;2023-02-28T07:51:29;-0.60;99.90
16477;DHT22;8349;50.928;6.376;2023-02-28T07:53:56;-0.60;99.90
16477;DHT22;8349;50.928;6.376;2023-02-28T07:56:23;-0.50;99.90
16477;DHT22;8349;50.928;6.376;2023-02-28T07:58:51;-0.50;99.90
16477;DHT22;8349;50.928;6.376;2023-02-28T08:01:18;-0.40;99.90
16477;DHT22;8349;50.928;6.376;2023-02-28T08:03:45;-0.30;99.90
16477;DHT22;8349;50.928;6.376;2023-02-28T08:06:15;-0.20;99.90
16477;DHT22;8349;50.928;6.376;2023-02-28T08:08:42;-0.20;99.90
16477;DHT22;8349;50.928;6.376;2023-02-28T08:11:09;-0.10;99.90
16477;DHT22;8349;50.928;6.376;2023-02-28T08:13:36;0.00;99.90
16477;DHT22;8349;50.928;6.376;2023-02-28T08:16:05;0.00;99.90
16477;DHT22;8349;50.928;6.376;2023-02-28T08:18:32;0.10;99.90
16477;DHT22;8349;50.928;6.376;2023-02-28T08:20:59;0.30;99.90
16477;DHT22;8349;50.928;6.376;2023-02-28T08:23:25;0.30;99.90
16477;DHT22;8349;50.928;6.376;2023-02-28T08:25:52;0.40;99.90
16477;DHT22;8349;50.928;6.376;2023-02-28T08:28:19;0.50;99.90
16477;DHT22;8349;50.928;6.376;2023-02-28T08:30:46;0.60;99.90
16477;DHT22;8349;50.928;6.376;2023-02-28T08:33:14;0.70;99.90
16477;DHT22;8349;50.928;6.376;2023-02-28T08:35:41;0.80;99.90
16477;DHT22;8349;50.928;6.376;2023-02-28T08:38:07;0.90;99.90
16477;DHT22;8349;50.928;6.376;2023-02-28T08:40:34;1.00;99.90
16477;DHT22;8349;50.928;6.376;2023-02-28T08:43:01;1.10;99.90
16477;DHT22;8349;50.928;6.376;2023-02-28T08:45:28;1.20;99.90
16477;DHT22;8349;50.928;6.376;2023-02-28T08:47:54;1.30;99.90
16477;DHT22;8349;50.928;6.376;2023-02-28T08:50:23;1.40;99.90
16477;DHT22;8349;50.928;6.376;2023-02-28T08:52:49;1.50;99.90
16477;DHT22;8349;50.928;6.376;2023-02-28T08:55:16;1.50;99.90
16477;DHT22;8349;50.928;6.376;2023-02-28T08:57:43;1.60;99.90
16477;DHT22;8349;50.928;6.376;2023-02-28T09:00:10;1.70;99.90
16477;DHT22;8349;50.928;6.376;2023-02-28T09:02:38;1.80;99.90
16477;DHT22;8349;50.928;6.376;2023-02-28T09:05:05;1.80;99.90
16477;DHT22;8349;50.928;6.376;2023-02-28T09:07:34;2.00;99.90
16477;DHT22;8349;50.928;6.376;2023-02-28T09:10:00;2.10;99.90
16477;DHT22;8349;50.928;6.376;2023-02-28T09:12:27;2.10;99.90
16477;DHT22;8349;50.928;6.376;2023-02-28T09:14:58;2.20;99.90
16477;DHT22;8349;50.928;6.376;2023-02-28T09:17:25;2.20;99.90
16477;DHT22;8349;50.928;6.376;2023-02-28T09:19:52;2.30;99.90
16477;DHT22;8349;50.928;6.376;2023-02-28T09:22:18;2.40;99.90
16477;DHT22;8349;50.928;6.376;2023-02-28T09:24:46;2.50;99.90
16477;DHT22;8349;50.928;6.376;2023-02-28T09:27:13;2.50;99.90
16477;DHT22;8349;50.928;6.376;2023-02-28T09:29:40;2.60;99.90
16477;DHT22;8349;50.928;6.376;2023-02-28T09:32:06;2.60;99.90
16477;DHT22;8349;50.928;6.376;2023-02-28T09:34:33;2.70;99.90
16477;DHT22;8349;50.928;6.376;2023-02-28T09:36:59;2.80;99.90
16477;DHT22;8349;50.928;6.376;2023-02-28T09:39:26;2.80;99.90
16477;DHT22;8349;50.928;6.376;2023-02-28T09:41:55;3.00;99.90
16477;DHT22;8349;50.928;6.376;2023-02-28T09:44:26;3.00;99.90
16477;DHT22;8349;50.928;6.376;2023-02-28T09:46:55;3.10;99.90
16477;DHT22;8349;50.928;6.376;2023-02-28T09:49:25;3.30;99.90
16477;DHT22;8349;50.928;6.376;2023-02-28T09:51:55;3.30;99.90
16477;DHT22;8349;50.928;6.376;2023-02-28T09:54:24;3.40;99.90
16477;DHT22;8349;50.928;6.376;2023-02-28T09:56:56;3.50;99.90
16477;DHT22;8349;50.928;6.376;2023-02-28T09:59:39;3.60;99.90
16477;DHT22;8349;50.928;6.376;2023-02-28T10:02:12;3.70;99.90
16477;DHT22;8349;50.928;6.376;2023-02-28T10:04:42;3.70;99.90
16477;DHT22;8349;50.928;6.376;2023-02-28T10:07:16;3.80;99.90
16477;DHT22;8349;50.928;6.376;2023-02-28T10:09:45;3.90;99.90
16477;DHT22;8349;50.928;6.376;2023-02-28T10:12:14;4.00;99.90
16477;DHT22;8349;50.928;6.376;2023-02-28T10:14:43;4.10;99.90
16477;DHT22;8349;50.928;6.376;2023-02-28T10:17:12;4.30;99.90
16477;DHT22;8349;50.928;6.376;2023-02-28T10:19:40;4.60;99.90
16477;DHT22;8349;50.928;6.376;2023-02-28T10:22:10;4.70;99.90
16477;DHT22;8349;50.928;6.376;2023-02-28T10:24:38;4.70;99.90
16477;DHT22;8349;50.928;6.376;2023-02-28T10:27:10;4.70;99.90
16477;DHT22;8349;50.928;6.376;2023-02-28T10:29:42;4.90;99.90
16477;DHT22;8349;50.928;6.376;2023-02-28T10:32:10;5.10;99.90
16477;DHT22;8349;50.928;6.376;2023-02-28T10:34:38;5.30;99.90
16477;DHT22;8349;50.928;6.376;2023-02-28T10:37:05;5.50;99.90
16477;DHT22;8349;50.928;6.376;2023-02-28T10:39:35;5.70;99.90
16477;DHT22;8349;50.928;6.376;2023-02-28T10:42:02;5.80;99.90
16477;DHT22;8349;50.928;6.376;2023-02-28T10:44:29;5.70;99.90
16477;DHT22;8349;50.928;6.376;2023-02-28T10:46:57;5.80;99.90
16477;DHT22;8349;50.928;6.376;2023-02-28T10:49:25;6.10;99.90
16477;DHT22;8349;50.928;6.376;2023-02-28T10:51:53;7.40;99.90
16477;DHT22;8349;50.928;6.376;2023-02-28T10:54:22;12.50;99.90
16477;DHT22;8349;50.928;6.376;2023-02-28T10:59:40;18.60;99.50
16477;DHT22;8349;50.928;6.376;2023-02-28T11:04:51;21.30;95.50
16477;DHT22;8349;50.928;6.376;2023-02-28T11:07:19;22.80;93.90
16477;DHT22;8349;50.928;6.376;2023-02-28T11:09:46;24.20;93.00
16477;DHT22;8349;50.928;6.376;2023-02-28T11:12:20;24.70;91.50
16477;DHT22;8349;50.928;6.376;2023-02-28T11:14:47;25.80;91.10
16477;DHT22;8349;50.928;6.376;2023-02-28T11:17:19;25.90;89.30
16477;DHT22;8349;50.928;6.376;2023-02-28T11:19:47;25.70;87.30
16477;DHT22;8349;50.928;6.376;2023-02-28T11:22:18;24.20;86.20
16477;DHT22;8349;50.928;6.376;2023-02-28T11:24:46;25.90;87.90
16477;DHT22;8349;50.928;6.376;2023-02-28T11:27:24;25.90;85.70
16477;DHT22;8349;50.928;6.376;2023-02-28T11:29:51;25.20;84.60
16477;DHT22;8349;50.928;6.376;2023-02-28T11:32:18;26.60;86.30
16477;DHT22;8349;50.928;6.376;2023-02-28T11:34:46;28.30;84.80
16477;DHT22;8349;50.928;6.376;2023-02-28T11:37:14;28.50;83.60
16477;DHT22;8349;50.928;6.376;2023-02-28T11:39:43;27.20;83.80
16477;DHT22;8349;50.928;6.376;2023-02-28T11:42:17;28.20;84.50
16477;DHT22;8349;50.928;6.376;2023-02-28T11:44:52;26.80;81.00
16477;DHT22;8349;50.928;6.376;2023-02-28T11:47:24;24.10;83.10
16477;DHT22;8349;50.928;6.376;2023-02-28T11:49:57;23.70;80.70
16477;DHT22;8349;50.928;6.376;2023-02-28T11:52:35;25.00;81.80
16477;DHT22;8349;50.928;6.376;2023-02-28T11:55:08;24.30;80.20
16477;DHT22;8349;50.928;6.376;2023-02-28T11:57:52;23.50;79.20
16477;DHT22;8349;50.928;6.376;2023-02-28T12:00:28;25.40;82.80
16477;DHT22;8349;50.928;6.376;2023-02-28T12:02:59;27.50;83.30
16477;DHT22;8349;50.928;6.376;2023-02-28T12:05:28;27.30;79.70
16477;DHT22;8349;50.928;6.376;2023-02-28T12:07:59;23.40;77.30
16477;DHT22;8349;50.928;6.376;2023-02-28T12:10:29;23.70;79.30
16477;DHT22;8349;50.928;6.376;2023-02-28T12:13:07;25.70;79.80
16477;DHT22;8349;50.928;6.376;2023-02-28T12:15:39;26.70;78.40
16477;DHT22;8349;50.928;6.376;2023-02-28T12:18:15;28.20;80.50
16477;DHT22;8349;50.928;6.376;2023-02-28T12:20:46;25.00;78.70
16477;DHT22;8349;50.928;6.376;2023-02-28T12:26:03;20.60;81.90
16477;DHT22;8349;50.928;6.376;2023-02-28T12:28:36;22.60;82.20
16477;DHT22;8349;50.928;6.376;2023-02-28T12:31:05;22.00;81.20
16477;DHT22;8349;50.928;6.376;2023-02-28T12:33:35;22.00;81.40
16477;DHT22;8349;50.928;6.376;2023-02-28T12:36:03;22.20;79.60
16477;DHT22;8349;50.928;6.376;2023-02-28T12:38:34;23.50;81.90
16477;DHT22;8349;50.928;6.376;2023-02-28T12:41:04;23.20;81.10
16477;DHT22;8349;50.928;6.376;2023-02-28T12:43:34;24.90;82.10
16477;DHT22;8349;50.928;6.376;2023-02-28T12:46:02;22.60;81.20
16477;DHT22;8349;50.928;6.376;2023-02-28T12:48:36;22.40;82.00
16477;DHT22;8349;50.928;6.376;2023-02-28T12:51:04;23.60;83.50
16477;DHT22;8349;50.928;6.376;2023-02-28T12:53:35;23.30;81.90
16477;DHT22;8349;50.928;6.376;2023-02-28T12:56:09;22.80;81.60
16477;DHT22;8349;50.928;6.376;2023-02-28T12:58:39;19.00;79.30
16477;DHT22;8349;50.928;6.376;2023-02-28T13:01:20;19.90;81.00
16477;DHT22;8349;50.928;6.376;2023-02-28T13:03:59;22.40;81.30
16477;DHT22;8349;50.928;6.376;2023-02-28T13:06:34;22.30;79.90
16477;DHT22;8349;50.928;6.376;2023-02-28T13:09:04;23.60;81.80
16477;DHT22;8349;50.928;6.376;2023-02-28T13:11:39;25.00;83.00
16477;DHT22;8349;50.928;6.376;2023-02-28T13:14:16;25.90;81.70
16477;DHT22;8349;50.928;6.376;2023-02-28T13:16:50;25.10;81.50
16477;DHT22;8349;50.928;6.376;2023-02-28T13:19:17;26.30;82.10
16477;DHT22;8349;50.928;6.376;2023-02-28T13:21:45;24.80;81.80
16477;DHT22;8349;50.928;6.376;2023-02-28T13:24:35;22.40;79.20
16477;DHT22;8349;50.928;6.376;2023-02-28T13:29:58;22.30;81.40
16477;DHT22;8349;50.928;6.376;2023-02-28T13:38:21;22.80;80.70
16477;DHT22;8349;50.928;6.376;2023-02-28T13:40:48;23.30;81.00
16477;DHT22;8349;50.928;6.376;2023-02-28T13:43:16;23.40;80.90
16477;DHT22;8349;50.928;6.376;2023-02-28T13:48:26;23.50;79.50
16477;DHT22;8349;50.928;6.376;2023-02-28T13:50:54;23.20;80.30
16477;DHT22;8349;50.928;6.376;2023-02-28T13:53:28;22.60;78.90
16477;DHT22;8349;50.928;6.376;2023-02-28T13:55:58;22.30;80.60
16477;DHT22;8349;50.928;6.376;2023-02-28T13:58:33;22.70;79.70
16477;DHT22;8349;50.928;6.376;2023-02-28T14:01:06;22.50;79.30
16477;DHT22;8349;50.928;6.376;2023-02-28T14:03:43;21.70;80.20
16477;DHT22;8349;50.928;6.376;2023-02-28T14:06:20;21.40;80.30
16477;DHT22;8349;50.928;6.376;2023-02-28T14:08:51;20.10;78.80
16477;DHT22;8349;50.928;6.376;2023-02-28T14:11:29;19.70;79.40
16477;DHT22;8349;50.928;6.376;2023-02-28T14:13:57;20.30;81.00
16477;DHT22;8349;50.928;6.376;2023-02-28T14:16:24;20.90;80.10
16477;DHT22;8349;50.928;6.376;2023-02-28T14:18:55;20.70;81.00
16477;DHT22;8349;50.928;6.376;2023-02-28T14:21:24;21.00;80.90
16477;DHT22;8349;50.928;6.376;2023-02-28T14:26:37;21.70;80.00
16477;DHT22;8349;50.928;6.376;2023-02-28T14:29:14;20.80;80.40
16477;DHT22;8349;50.928;6.376;2023-02-28T14:31:45;20.90;80.70
16477;DHT22;8349;50.928;6.376;2023-02-28T14:34:24;19.60;79.50
16477;DHT22;8349;50.928;6.376;2023-02-28T14:36:52;20.00;79.60
16477;DHT22;8349;50.928;6.376;2023-02-28T14:39:20;20.00;79.30
16477;DHT22;8349;50.928;6.376;2023-02-28T14:41:47;18.80;78.90
16477;DHT22;8349;50.928;6.376;2023-02-28T14:44:15;19.10;78.30
16477;DHT22;8349;50.928;6.376;2023-02-28T14:46:43;19.80;80.30
16477;DHT22;8349;50.928;6.376;2023-02-28T14:49:13;19.80;79.10
16477;DHT22;8349;50.928;6.376;2023-02-28T14:51:43;18.40;79.50
16477;DHT22;8349;50.928;6.376;2023-02-28T14:54:13;18.90;79.50
16477;DHT22;8349;50.928;6.376;2023-02-28T14:56:41;18.90;79.30
16477;DHT22;8349;50.928;6.376;2023-02-28T14:59:22;18.90;78.80
16477;DHT22;8349;50.928;6.376;2023-02-28T15:01:49;19.20;79.00
16477;DHT22;8349;50.928;6.376;2023-02-28T15:04:18;19.80;79.40
16477;DHT22;8349;50.928;6.376;2023-02-28T15:09:30;19.80;78.90
16477;DHT22;8349;50.928;6.376;2023-02-28T15:11:57;20.20;80.70
16477;DHT22;8349;50.928;6.376;2023-02-28T15:14:24;20.20;79.30
16477;DHT22;8349;50.928;6.376;2023-02-28T15:16:55;19.90;78.80
16477;DHT22;8349;50.928;6.376;2023-02-28T15:19:23;20.00;79.40
16477;DHT22;8349;50.928;6.376;2023-02-28T15:21:52;20.30;78.40
16477;DHT22;8349;50.928;6.376;2023-02-28T15:24:21;20.00;78.20
16477;DHT22;8349;50.928;6.376;2023-02-28T15:26:52;20.00;78.60
16477;DHT22;8349;50.928;6.376;2023-02-28T15:29:21;20.50;79.70
16477;DHT22;8349;50.928;6.376;2023-02-28T15:31:49;20.10;78.50
16477;DHT22;8349;50.928;6.376;2023-02-28T15:34:18;20.30;78.80
16477;DHT22;8349;50.928;6.376;2023-02-28T15:36:45;20.00;78.90
16477;DHT22;8349;50.928;6.376;2023-02-28T15:39:20;19.50;78.80
16477;DHT22;8349;50.928;6.376;2023-02-28T15:41:49;19.40;78.90
16477;DHT22;8349;50.928;6.376;2023-02-28T15:44:23;18.70;79.70
16477;DHT22;8349;50.928;6.376;2023-02-28T15:46:59;18.50;78.90
16477;DHT22;8349;50.928;6.376;2023-02-28T15:49:26;18.80;79.30
16477;DHT22;8349;50.928;6.376;2023-02-28T15:51:55;17.80;78.60
16477;DHT22;8349;50.928;6.376;2023-02-28T15:54:23;16.90;79.50
16477;DHT22;8349;50.928;6.376;2023-02-28T15:56:53;17.30;79.90
16477;DHT22;8349;50.928;6.376;2023-02-28T15:59:23;18.00;80.00
16477;DHT22;8349;50.928;6.376;2023-02-28T16:05:00;17.90;80.00
16477;DHT22;8349;50.928;6.376;2023-02-28T16:07:27;17.80;81.00
16477;DHT22;8349;50.928;6.376;2023-02-28T16:09:54;17.90;79.60
16477;DHT22;8349;50.928;6.376;2023-02-28T16:12:23;17.60;79.80
16477;DHT22;8349;50.928;6.376;2023-02-28T16:14:53;17.90;79.50
16477;DHT22;8349;50.928;6.376;2023-02-28T16:17:21;17.70;78.80
16477;DHT22;8349;50.928;6.376;2023-02-28T16:19:49;17.10;78.50
16477;DHT22;8349;50.928;6.376;2023-02-28T16:22:15;16.60;78.90
16477;DHT22;8349;50.928;6.376;2023-02-28T16:24:42;16.70;79.30
16477;DHT22;8349;50.928;6.376;2023-02-28T16:27:10;16.40;79.00
16477;DHT22;8349;50.928;6.376;2023-02-28T16:29:43;16.20;80.10
16477;DHT22;8349;50.928;6.376;2023-02-28T16:32:12;15.00;80.00
16477;DHT22;8349;50.928;6.376;2023-02-28T16:34:40;13.80;80.50
16477;DHT22;8349;50.928;6.376;2023-02-28T16:37:09;12.90;81.70
16477;DHT22;8349;50.928;6.376;2023-02-28T16:39:36;12.10;83.20
16477;DHT22;8349;50.928;6.376;2023-02-28T16:42:03;11.40;84.30